Ioannis Maria T — SW3156 — position and weather

sailwx.info

Track history (hours):
 
Tides and Currents Weather Stations Pressure Air Temp Water Temp Dewpoint Dewpoint Depression Visibility Wind Speed Wind Dir Waves Ship Positions

Ioannis Maria T

Last reported at 2017-Aug-17 03:24 UTC. Time now 2017-Nov-24 12:55 UTC.
Position N 40°52' E 024°41'.
Warning: this ship's position is months out of date.

Length 26 m; draft 3 m.

Type: Fishing. MMSI: 237889000.

Date/timePositionNaut miles runAvg speedWind from/ knotsBaromVisibWave heightAir tempDewpointWater temp
2017-Aug-17 03:24N 40°52' E 024°41'1 2.2
2017-Aug-17 03:00N 40°52' E 024°42'0 0.0
2017-Aug-17 02:30N 40°52' E 024°42'0 0.0
2017-Aug-17 02:01N 40°52' E 024°42'0 0.0
2017-Aug-17 01:31N 40°52' E 024°42'0 0.0
2017-Aug-17 01:01N 40°52' E 024°42'0 0.0
2017-Aug-17 00:31N 40°52' E 024°42'0 0.0
2017-Aug-17 00:00N 40°52' E 024°42'0 0.0
2017-Aug-16 23:31N 40°52' E 024°42'0 0.0
2017-Aug-16 23:01N 40°52' E 024°42'0 0.0
2017-Aug-16 22:30N 40°52' E 024°42'0 0.0
2017-Aug-16 22:01N 40°52' E 024°42'0 0.0
2017-Aug-16 21:31N 40°52' E 024°42'0 0.0
2017-Aug-16 21:01N 40°52' E 024°42'0 0.0
2017-Aug-16 20:30N 40°52' E 024°42'0 0.0
2017-Aug-16 20:00N 40°52' E 024°42'0 0.0
2017-Aug-16 19:31N 40°52' E 024°42'0 0.0
2017-Aug-16 19:01N 40°52' E 024°42'0 0.0
2017-Aug-16 18:31N 40°52' E 024°42'0 0.0
2017-Aug-16 18:01N 40°52' E 024°42'0 0.4
2017-Aug-16 17:31N 40°52' E 024°42'  
2017-Aug-11 20:00N 40°51' E 024°42'0 0.0
2017-Aug-11 19:30N 40°51' E 024°42'0 0.0
2017-Aug-11 19:00N 40°51' E 024°42'0 0.0
2017-Aug-11 18:30N 40°51' E 024°42'0 0.0
2017-Aug-11 18:00N 40°51' E 024°42'0 0.0
2017-Aug-11 17:30N 40°51' E 024°42'0 0.0
2017-Aug-11 17:00N 40°51' E 024°42'0 0.0
2017-Aug-11 16:30N 40°51' E 024°42'1 1.2
2017-Aug-11 16:00N 40°51' E 024°41'  
2017-Aug-08 15:40N 40°46' E 024°54'1 8.7
2017-Aug-08 15:30N 40°45' E 024°56'5 8.9
2017-Aug-08 14:55N 40°42' E 025°02'3 0.3
2017-Aug-08 06:44N 40°42' E 025°05'1 3.2
2017-Aug-08 06:30N 40°42' E 025°04'2 3.2
2017-Aug-08 06:00N 40°42' E 025°02'0 0.5
2017-Aug-08 05:30N 40°42' E 025°02'1 1.8
2017-Aug-08 05:00N 40°42' E 025°03'2 3.2
2017-Aug-08 04:30N 40°42' E 025°05'2 3.2
2017-Aug-08 04:00N 40°42' E 025°07'2 3.2
2017-Aug-08 03:30N 40°42' E 025°09'2 3.2
2017-Aug-08 03:00N 40°42' E 025°11'2 3.2
2017-Aug-08 02:30N 40°43' E 025°13'2 3.1
2017-Aug-08 02:00N 40°43' E 025°16'2 3.1
2017-Aug-08 01:30N 40°43' E 025°18'12 2.2
2017-Aug-07 20:04N 40°42' E 025°02'0 3.1
2017-Aug-07 20:00N 40°42' E 025°02'1 1.1
2017-Aug-07 19:30N 40°42' E 025°01'3 3.1
2017-Aug-07 18:26N 40°40' E 025°04'9 3.0
2017-Aug-07 15:31N 40°34' E 025°13'0 3.1
2017-Aug-07 15:28N 40°34' E 025°13'8 1.4
2017-Aug-07 09:50N 40°40' E 025°07'1 3.2
2017-Aug-07 09:30N 40°40' E 025°06'2 3.2
2017-Aug-07 08:59N 40°40' E 025°04'2 3.2
2017-Aug-07 08:30N 40°39' E 025°02'1 2.5
2017-Aug-07 08:00N 40°37' E 025°02'2 3.0
2017-Aug-07 07:18N 40°36' E 025°04'1 3.1
2017-Aug-07 07:00N 40°36' E 025°05'2 3.1
2017-Aug-07 06:30N 40°35' E 025°07'2 3.1
2017-Aug-07 06:00N 40°35' E 025°09'1 1.7
2017-Aug-07 05:30N 40°34' E 025°10'1 1.5
2017-Aug-07 04:39N 40°35' E 025°08'1 3.1
2017-Aug-07 04:28N 40°35' E 025°08'  
Track history (hours):
 
Tides and Currents Weather Stations Pressure Air Temp Water Temp Dewpoint Dewpoint Depression Visibility Wind Speed Wind Dir Waves Ship Positions

Ioannis Maria T

Last reported at 2017-Aug-17 03:24 UTC. Time now 2017-Nov-24 12:55 UTC.
Position N 40°52' E 024°41'.
Warning: this ship's position is months out of date.

Length 26 m; draft 3 m.

Type: Fishing. MMSI: 237889000.

Date/timePositionNaut miles runAvg speedWind from/ knotsBaromVisibWave heightAir tempDewpointWater temp
2017-Aug-17 03:24N 40°52' E 024°41'1 2.2
2017-Aug-17 03:00N 40°52' E 024°42'0 0.0
2017-Aug-17 02:30N 40°52' E 024°42'0 0.0
2017-Aug-17 02:01N 40°52' E 024°42'0 0.0
2017-Aug-17 01:31N 40°52' E 024°42'0 0.0
2017-Aug-17 01:01N 40°52' E 024°42'0 0.0
2017-Aug-17 00:31N 40°52' E 024°42'0 0.0
2017-Aug-17 00:00N 40°52' E 024°42'0 0.0
2017-Aug-16 23:31N 40°52' E 024°42'0 0.0
2017-Aug-16 23:01N 40°52' E 024°42'0 0.0
2017-Aug-16 22:30N 40°52' E 024°42'0 0.0
2017-Aug-16 22:01N 40°52' E 024°42'0 0.0
2017-Aug-16 21:31N 40°52' E 024°42'0 0.0
2017-Aug-16 21:01N 40°52' E 024°42'0 0.0
2017-Aug-16 20:30N 40°52' E 024°42'0 0.0
2017-Aug-16 20:00N 40°52' E 024°42'0 0.0
2017-Aug-16 19:31N 40°52' E 024°42'0 0.0
2017-Aug-16 19:01N 40°52' E 024°42'0 0.0
2017-Aug-16 18:31N 40°52' E 024°42'0 0.0
2017-Aug-16 18:01N 40°52' E 024°42'0 0.4
2017-Aug-16 17:31N 40°52' E 024°42'  
2017-Aug-11 20:00N 40°51' E 024°42'0 0.0
2017-Aug-11 19:30N 40°51' E 024°42'0 0.0
2017-Aug-11 19:00N 40°51' E 024°42'0 0.0
2017-Aug-11 18:30N 40°51' E 024°42'0 0.0
2017-Aug-11 18:00N 40°51' E 024°42'0 0.0
2017-Aug-11 17:30N 40°51' E 024°42'0 0.0
2017-Aug-11 17:00N 40°51' E 024°42'0 0.0
2017-Aug-11 16:30N 40°51' E 024°42'1 1.2
2017-Aug-11 16:00N 40°51' E 024°41'  
2017-Aug-08 15:40N 40°46' E 024°54'1 8.7
2017-Aug-08 15:30N 40°45' E 024°56'5 8.9
2017-Aug-08 14:55N 40°42' E 025°02'3 0.3
2017-Aug-08 06:44N 40°42' E 025°05'1 3.2
2017-Aug-08 06:30N 40°42' E 025°04'2 3.2
2017-Aug-08 06:00N 40°42' E 025°02'0 0.5
2017-Aug-08 05:30N 40°42' E 025°02'1 1.8
2017-Aug-08 05:00N 40°42' E 025°03'2 3.2
2017-Aug-08 04:30N 40°42' E 025°05'2 3.2
2017-Aug-08 04:00N 40°42' E 025°07'2 3.2
2017-Aug-08 03:30N 40°42' E 025°09'2 3.2
2017-Aug-08 03:00N 40°42' E 025°11'2 3.2
2017-Aug-08 02:30N 40°43' E 025°13'2 3.1
2017-Aug-08 02:00N 40°43' E 025°16'2 3.1
2017-Aug-08 01:30N 40°43' E 025°18'12 2.2
2017-Aug-07 20:04N 40°42' E 025°02'0 3.1
2017-Aug-07 20:00N 40°42' E 025°02'1 1.1
2017-Aug-07 19:30N 40°42' E 025°01'3 3.1
2017-Aug-07 18:26N 40°40' E 025°04'9 3.0
2017-Aug-07 15:31N 40°34' E 025°13'0 3.1
2017-Aug-07 15:28N 40°34' E 025°13'8 1.4
2017-Aug-07 09:50N 40°40' E 025°07'1 3.2
2017-Aug-07 09:30N 40°40' E 025°06'2 3.2
2017-Aug-07 08:59N 40°40' E 025°04'2 3.2
2017-Aug-07 08:30N 40°39' E 025°02'1 2.5
2017-Aug-07 08:00N 40°37' E 025°02'2 3.0
2017-Aug-07 07:18N 40°36' E 025°04'1 3.1
2017-Aug-07 07:00N 40°36' E 025°05'2 3.1
2017-Aug-07 06:30N 40°35' E 025°07'2 3.1
2017-Aug-07 06:00N 40°35' E 025°09'1 1.7
2017-Aug-07 05:30N 40°34' E 025°10'1 1.5
2017-Aug-07 04:39N 40°35' E 025°08'1 3.1
2017-Aug-07 04:28N 40°35' E 025°08'  

Dump ship's entire track history